createdAt,value
2018-06-05T00:02:04.767Z,1.00
2018-06-05T00:04:35.761Z,1.20
2018-06-05T00:07:06.341Z,1.17
2018-06-05T00:09:36.927Z,1.00
2018-06-05T00:12:08.216Z,1.00
2018-06-05T00:14:38.925Z,1.10
2018-06-05T00:17:09.554Z,0.90
2018-06-05T00:19:40.843Z,0.90
2018-06-05T00:22:11.689Z,0.90
2018-06-05T00:24:42.180Z,0.93
2018-06-05T00:27:13.189Z,1.10
2018-06-05T00:29:44.129Z,1.10
2018-06-05T00:32:15.084Z,1.10
2018-06-05T00:34:46.073Z,1.80
2018-06-05T00:37:16.683Z,0.90
2018-06-05T00:39:47.715Z,1.10
2018-06-05T00:42:18.652Z,1.07
2018-06-05T00:44:49.257Z,1.00
2018-06-05T00:47:19.537Z,1.10
2018-06-05T00:49:50.294Z,1.10
2018-06-05T00:52:21.354Z,1.10
2018-06-05T00:54:52.191Z,1.10
2018-06-05T00:57:23.235Z,0.90
2018-06-05T00:59:54.385Z,0.97
2018-06-05T01:02:25.183Z,1.00
2018-06-05T01:04:55.990Z,1.00
2018-06-05T01:07:26.796Z,1.13
2018-06-05T01:09:57.015Z,1.03
2018-06-05T01:12:28.110Z,1.00
2018-06-05T01:14:59.191Z,1.07
2018-06-05T01:17:30.754Z,1.10
2018-06-05T01:20:01.529Z,0.90
2018-06-05T01:22:32.578Z,1.50
2018-06-05T01:25:03.369Z,1.20
2018-06-05T01:27:34.509Z,1.13
2018-06-05T01:30:05.691Z,1.07
2018-06-05T01:32:36.613Z,0.90
2018-06-05T01:35:07.744Z,1.57
2018-06-05T01:37:38.339Z,1.10
2018-06-05T01:40:09.486Z,1.17
2018-06-05T01:42:40.894Z,1.10
2018-06-05T01:45:11.722Z,1.20
2018-06-05T01:47:43.114Z,1.30
2018-06-05T01:50:13.785Z,1.13
2018-06-05T01:52:45.370Z,1.10
2018-06-05T01:55:16.225Z,1.30
2018-06-05T01:57:47.093Z,1.20
2018-06-05T02:00:17.110Z,1.20
2018-06-05T02:02:47.941Z,1.00
2018-06-05T02:05:18.599Z,1.47
2018-06-05T02:07:49.201Z,1.17
2018-06-05T02:10:19.388Z,1.00
2018-06-05T02:12:50.287Z,1.30
2018-06-05T02:15:21.342Z,1.00
2018-06-05T02:17:51.760Z,1.00
2018-06-05T02:20:22.617Z,1.00
2018-06-05T02:22:53.183Z,1.23
2018-06-05T02:25:24.253Z,1.20
2018-06-05T02:27:55.878Z,1.10
2018-06-05T02:30:26.898Z,1.20
2018-06-05T02:32:57.469Z,0.70
2018-06-05T02:35:28.108Z,0.90
2018-06-05T02:37:59.251Z,0.90
2018-06-05T02:40:30.478Z,0.90
2018-06-05T02:43:01.469Z,1.00
2018-06-05T02:45:32.301Z,1.07
2018-06-05T02:48:03.418Z,1.10
2018-06-05T02:50:34.446Z,1.10
2018-06-05T02:53:05.451Z,1.30
2018-06-05T02:55:36.384Z,1.20
2018-06-05T02:58:07.575Z,1.10
2018-06-05T03:00:37.644Z,1.00
2018-06-05T03:03:08.199Z,1.10
2018-06-05T03:05:39.021Z,1.00
2018-06-05T03:09:39.101Z,1.17
2018-06-05T03:12:10.313Z,0.90
2018-06-05T03:14:40.969Z,0.90
2018-06-05T03:17:11.870Z,0.90
2018-06-05T03:19:41.967Z,1.03
2018-06-05T03:22:13.231Z,0.80
2018-06-05T03:24:44.093Z,0.90
2018-06-05T03:27:15.491Z,0.90
2018-06-05T03:29:46.145Z,1.00
2018-06-05T03:32:16.042Z,1.00
2018-06-05T03:34:47.076Z,0.90
2018-06-05T03:37:18.570Z,0.90
2018-06-05T03:39:49.104Z,0.80
2018-06-05T03:42:20.014Z,1.00
2018-06-05T03:44:50.807Z,1.00
2018-06-05T03:47:22.057Z,0.90
2018-06-05T03:49:52.824Z,1.20
2018-06-05T03:52:23.863Z,0.70
2018-06-05T03:54:55.253Z,0.80
2018-06-05T03:57:25.795Z,0.97
2018-06-05T03:59:56.638Z,1.00
2018-06-05T04:02:27.261Z,0.90
2018-06-05T04:04:58.045Z,1.00
2018-06-05T04:07:29.045Z,1.00
2018-06-05T04:09:59.934Z,0.90
2018-06-05T04:12:30.066Z,0.97
2018-06-05T04:15:00.801Z,0.87
2018-06-05T04:17:31.693Z,0.90
2018-06-05T04:20:02.770Z,0.80
2018-06-05T04:22:33.682Z,0.90
2018-06-05T04:25:04.437Z,0.90
2018-06-05T04:27:34.784Z,0.80
2018-06-05T04:30:05.468Z,0.83
2018-06-05T04:32:36.600Z,0.80
2018-06-05T04:35:07.238Z,1.00
2018-06-05T04:37:37.982Z,0.90
2018-06-05T04:40:09.052Z,1.00
2018-06-05T04:42:40.339Z,0.90
2018-06-05T04:45:11.381Z,1.00
2018-06-05T04:47:42.238Z,0.90
2018-06-05T04:50:12.822Z,0.80
2018-06-05T04:52:43.608Z,1.30
2018-06-05T04:55:14.580Z,0.97
2018-06-05T04:57:45.655Z,0.93
2018-06-05T05:00:16.474Z,0.73
2018-06-05T05:02:47.067Z,0.90
2018-06-05T05:05:17.665Z,0.70
2018-06-05T05:07:48.497Z,0.90
2018-06-05T05:10:19.262Z,0.90
2018-06-05T05:12:49.667Z,0.67
2018-06-05T05:15:19.592Z,1.00
2018-06-05T05:17:50.459Z,1.00
2018-06-05T05:20:20.957Z,1.07
2018-06-05T05:22:53.746Z,1.10
2018-06-05T05:25:25.835Z,1.30
2018-06-05T05:27:57.631Z,1.00
2018-06-05T05:30:30.511Z,0.93
2018-06-05T05:33:03.391Z,1.00
2018-06-05T05:35:34.921Z,1.00
2018-06-05T05:38:07.611Z,0.90
2018-06-05T05:40:40.258Z,0.80
2018-06-05T05:43:16.163Z,1.70
2018-06-05T05:45:48.338Z,1.00
2018-06-05T05:48:21.756Z,1.10
2018-06-05T05:50:54.987Z,1.03
2018-06-05T05:53:26.635Z,1.10
2018-06-05T05:55:57.705Z,1.50
2018-06-05T05:58:29.863Z,1.30
2018-06-05T06:01:03.212Z,1.20
2018-06-05T06:03:34.305Z,1.00
2018-06-05T06:06:07.680Z,1.20
2018-06-05T06:08:39.482Z,1.10
2018-06-05T06:11:11.663Z,1.00
2018-06-05T06:13:44.706Z,1.20
2018-06-05T06:16:16.554Z,1.33
2018-06-05T06:18:47.616Z,0.90
2018-06-05T06:21:17.731Z,1.00
2018-06-05T06:23:47.661Z,1.00
2018-06-05T06:26:17.736Z,1.10
2018-06-05T06:28:47.746Z,1.00
2018-06-05T06:31:17.788Z,1.00
2018-06-05T06:33:48.729Z,0.90
2018-06-05T06:36:19.512Z,0.90
2018-06-05T06:38:50.418Z,0.97
2018-06-05T06:41:21.373Z,0.90
2018-06-05T06:43:51.326Z,1.00
2018-06-05T06:46:21.279Z,0.90
2018-06-05T06:48:52.430Z,1.00
2018-06-05T06:51:23.174Z,1.00
2018-06-05T06:53:54.088Z,1.10
2018-06-05T06:56:24.429Z,1.20
2018-06-05T06:58:55.948Z,1.10
2018-06-05T07:01:26.720Z,1.30
2018-06-05T07:03:57.441Z,1.17
2018-06-05T07:06:29.171Z,1.10
2018-06-05T07:09:01.837Z,1.10
2018-06-05T07:11:34.306Z,1.17
2018-06-05T07:14:05.713Z,1.30
2018-06-05T07:16:35.736Z,1.03
2018-06-05T07:19:05.618Z,1.30
2018-06-05T07:21:36.330Z,1.10
2018-06-05T07:24:06.249Z,1.00
2018-06-05T07:26:36.414Z,1.17
2018-06-05T07:29:06.178Z,0.87
2018-06-05T07:31:36.720Z,0.90
2018-06-05T07:34:07.849Z,1.03
2018-06-05T07:36:37.841Z,1.03
2018-06-05T07:39:09.002Z,0.90
2018-06-05T07:41:39.954Z,0.80
2018-06-05T07:44:11.056Z,0.90
2018-06-05T07:46:41.510Z,0.97
2018-06-05T07:49:12.648Z,1.10
2018-06-05T07:51:42.553Z,0.70
2018-06-05T07:54:13.568Z,1.00
2018-06-05T07:56:44.163Z,0.93
2018-06-05T07:59:14.878Z,1.10
2018-06-05T08:01:45.936Z,1.80
2018-06-05T08:04:16.682Z,0.93
2018-06-05T08:06:47.410Z,0.90
2018-06-05T08:09:18.525Z,1.23
2018-06-05T08:11:49.317Z,0.90
2018-06-05T08:14:19.351Z,0.90
2018-06-05T08:16:50.239Z,1.03
2018-06-05T08:19:20.958Z,0.80
2018-06-05T08:21:51.960Z,0.80
2018-06-05T08:24:21.904Z,0.70
2018-06-05T08:26:53.948Z,0.80
2018-06-05T08:29:24.524Z,0.90
2018-06-05T08:31:54.390Z,0.90
2018-06-05T08:34:25.426Z,0.90
2018-06-05T08:36:55.387Z,0.90
2018-06-05T08:39:25.397Z,1.03
2018-06-05T08:41:56.070Z,1.00
2018-06-05T08:44:26.074Z,1.03
2018-06-05T08:46:56.660Z,0.80
2018-06-05T08:49:27.713Z,0.90
2018-06-05T08:51:57.788Z,1.00
2018-06-05T08:54:27.690Z,0.90
2018-06-05T08:56:58.697Z,1.10
2018-06-05T08:59:29.227Z,0.83
2018-06-05T09:01:59.216Z,2.03
2018-06-05T09:04:29.083Z,1.17
2018-06-05T09:07:00.032Z,1.03
2018-06-05T09:09:30.146Z,1.00
2018-06-05T09:12:00.752Z,0.83
2018-06-05T09:14:30.736Z,0.87
2018-06-05T09:17:00.727Z,0.90
2018-06-05T09:19:31.367Z,0.90
2018-06-05T09:22:01.264Z,1.10
2018-06-05T09:24:31.380Z,1.17
2018-06-05T09:27:01.263Z,0.90
2018-06-05T09:29:31.175Z,1.00
2018-06-05T09:32:02.004Z,0.90
2018-06-05T09:34:32.741Z,0.87
2018-06-05T09:37:02.679Z,0.73
2018-06-05T09:39:33.533Z,1.00
2018-06-05T09:42:03.559Z,0.70
2018-06-05T09:44:33.451Z,0.90
2018-06-05T09:47:03.366Z,0.80
2018-06-05T09:49:34.658Z,0.97
2018-06-05T09:52:05.804Z,1.10
2018-06-05T09:54:35.696Z,0.80
2018-06-05T09:57:05.931Z,0.93
2018-06-05T09:59:36.756Z,0.93
2018-06-05T10:02:07.348Z,1.00
2018-06-05T10:04:38.262Z,1.10
2018-06-05T10:07:09.322Z,0.90
2018-06-05T10:09:39.940Z,0.80
2018-06-05T10:12:09.805Z,0.83
2018-06-05T10:14:39.667Z,1.00
2018-06-05T10:17:09.744Z,0.90
2018-06-05T10:20:43.237Z,1.00
2018-06-05T10:23:13.725Z,0.80
2018-06-05T10:25:43.995Z,0.90
2018-06-05T10:28:14.624Z,0.80
2018-06-05T10:30:45.529Z,0.70
2018-06-05T10:33:16.501Z,0.90
2018-06-05T10:35:46.526Z,1.00
2018-06-05T10:38:16.404Z,0.90
2018-06-05T10:40:47.204Z,0.90
2018-06-05T10:43:18.232Z,1.00
2018-06-05T10:45:48.347Z,0.80
2018-06-05T10:48:18.407Z,0.83
2018-06-05T10:50:48.476Z,0.70
2018-06-05T10:53:19.515Z,0.73
2018-06-05T10:55:50.067Z,0.70
2018-06-05T10:58:20.049Z,0.80
2018-06-05T11:00:50.705Z,0.93
2018-06-05T11:03:20.594Z,0.80
2018-06-05T11:05:50.497Z,0.90
2018-06-05T11:08:21.222Z,0.80
2018-06-05T11:10:52.395Z,0.80
2018-06-05T11:13:22.373Z,1.00
2018-06-05T11:15:52.272Z,0.80
2018-06-05T11:18:22.965Z,1.20
2018-06-05T11:20:52.953Z,0.90
2018-06-05T11:23:22.842Z,0.70
2018-06-05T11:25:52.916Z,0.80
2018-06-05T11:28:23.784Z,0.70
2018-06-05T11:30:53.807Z,0.90
2018-06-05T11:33:25.017Z,0.77
2018-06-05T11:35:55.600Z,0.90
2018-06-05T11:38:25.514Z,0.77
2018-06-05T11:40:56.133Z,0.80
2018-06-05T11:43:26.102Z,1.10
2018-06-05T11:45:56.757Z,0.80
2018-06-05T11:48:27.931Z,0.77
2018-06-05T11:50:58.727Z,0.73
2018-06-05T11:53:28.607Z,0.87
2018-06-05T11:55:58.389Z,0.73
2018-06-05T11:58:28.425Z,0.90
2018-06-05T12:00:58.446Z,0.90
2018-06-05T12:03:29.620Z,0.90
2018-06-05T12:06:00.695Z,0.87
2018-06-05T12:08:31.002Z,0.80
2018-06-05T12:11:01.612Z,0.70
2018-06-05T12:13:32.496Z,0.70
2018-06-05T12:16:02.770Z,0.50
2018-06-05T12:18:33.473Z,0.93
2018-06-05T12:21:04.995Z,0.87
2018-06-05T12:23:35.828Z,0.80
2018-06-05T12:26:05.994Z,0.80
2018-06-05T12:28:36.506Z,0.60
2018-06-05T12:31:07.637Z,0.80
2018-06-05T12:33:37.919Z,0.77
2018-06-05T12:36:08.853Z,1.07
2018-06-05T12:38:38.881Z,0.87
2018-06-05T12:41:08.915Z,1.30
2018-06-05T12:43:39.980Z,0.80
2018-06-05T12:46:10.004Z,0.80
2018-06-05T12:48:39.982Z,0.80
2018-06-05T12:51:11.139Z,0.60
2018-06-05T12:53:42.013Z,0.80
2018-06-05T12:56:12.411Z,0.60
2018-06-05T12:58:43.553Z,0.80
2018-06-05T13:01:14.364Z,0.60
2018-06-05T13:03:45.155Z,0.83
2018-06-05T13:07:44.449Z,0.70
2018-06-05T13:10:15.328Z,0.70
2018-06-05T13:12:46.241Z,1.00
2018-06-05T13:15:16.974Z,0.70
2018-06-05T13:17:48.161Z,0.80
2018-06-05T13:20:18.056Z,0.90
2018-06-05T13:22:48.248Z,0.80
2018-06-05T13:25:18.286Z,1.00
2018-06-05T13:27:48.333Z,0.80
2018-06-05T13:30:18.671Z,0.93
2018-06-05T13:32:48.626Z,0.70
2018-06-05T13:35:19.652Z,0.80
2018-06-05T13:37:49.912Z,0.60
2018-06-05T13:40:20.024Z,0.63
2018-06-05T13:42:49.866Z,0.80
2018-06-05T13:45:19.811Z,0.70
2018-06-05T13:47:49.709Z,0.87
2018-06-05T13:50:19.628Z,0.77
2018-06-05T13:52:50.466Z,0.57
2018-06-05T13:55:21.696Z,0.50
2018-06-05T13:57:51.747Z,0.80
2018-06-05T14:00:21.637Z,0.70
2018-06-05T14:02:51.666Z,0.70
2018-06-05T14:05:22.617Z,0.80
2018-06-05T14:07:52.575Z,0.70
2018-06-05T14:10:22.467Z,0.90
2018-06-05T14:12:53.262Z,0.60
2018-06-05T14:15:23.932Z,0.50
2018-06-05T14:17:53.855Z,0.90
2018-06-05T14:20:24.956Z,0.90
2018-06-05T14:22:54.876Z,0.80
2018-06-05T14:25:25.165Z,0.60
2018-06-05T14:27:54.954Z,0.87
2018-06-05T14:30:24.843Z,0.80
2018-06-05T14:32:54.737Z,0.50
2018-06-05T14:35:25.266Z,0.90
2018-06-05T14:37:56.432Z,1.10
2018-06-05T14:40:26.415Z,0.67
2018-06-05T14:42:57.359Z,0.70
2018-06-05T14:45:27.312Z,0.80
2018-06-05T14:51:30.593Z,0.73
2018-06-05T14:54:00.996Z,1.23
2018-06-05T14:56:31.098Z,0.83
2018-06-05T14:59:01.129Z,0.90
2018-06-05T15:01:31.174Z,0.70
2018-06-05T15:04:02.364Z,0.90
2018-06-05T15:06:32.256Z,0.70
2018-06-05T15:09:03.933Z,0.87
2018-06-05T15:11:33.855Z,0.70
2018-06-05T15:14:03.793Z,0.87
2018-06-05T15:16:34.469Z,0.80
2018-06-05T15:19:04.350Z,0.80
2018-06-05T15:21:34.385Z,0.70
2018-06-05T15:24:04.399Z,0.70
2018-06-05T15:26:34.495Z,0.60
2018-06-05T15:29:04.524Z,0.60
2018-06-05T15:31:34.529Z,0.70
2018-06-05T15:34:04.573Z,0.83
2018-06-05T15:36:34.402Z,0.70
2018-06-05T15:39:06.475Z,0.83
2018-06-05T15:41:37.626Z,0.60
2018-06-05T15:44:08.616Z,0.73
2018-06-05T15:46:39.181Z,0.80
2018-06-05T15:49:09.143Z,0.63
2018-06-05T15:51:39.041Z,0.60
2018-06-05T15:54:09.362Z,0.70
2018-06-05T15:56:40.221Z,0.60
2018-06-05T15:59:10.240Z,0.60
2018-06-05T16:01:41.056Z,0.70
2018-06-05T16:04:10.926Z,0.83
2018-06-05T16:06:40.840Z,0.70
2018-06-05T16:09:11.683Z,0.60
2018-06-05T16:11:41.640Z,0.77
2018-06-05T16:14:12.305Z,1.00
2018-06-05T16:16:43.710Z,0.87
2018-06-05T16:22:04.517Z,0.70
2018-06-05T16:24:32.963Z,0.73
2018-06-05T16:27:02.473Z,0.60
2018-06-05T16:29:31.225Z,0.70
2018-06-05T16:31:59.657Z,0.90
2018-06-05T16:34:29.173Z,0.70
2018-06-05T16:36:58.763Z,0.70
2018-06-05T16:39:28.000Z,0.60
2018-06-05T16:41:56.509Z,0.60
2018-06-05T16:44:26.159Z,0.90
2018-06-05T16:46:55.760Z,0.60
2018-06-05T16:49:24.263Z,0.90
2018-06-05T16:51:52.755Z,0.90
2018-06-05T16:54:21.214Z,0.70
2018-06-05T16:56:49.779Z,0.70
2018-06-05T16:59:18.998Z,0.77
2018-06-05T17:01:48.516Z,0.70
2018-06-05T17:04:18.168Z,0.80
2018-06-05T17:06:46.786Z,0.70
2018-06-05T17:09:16.707Z,0.77
2018-06-05T17:11:45.838Z,0.80
2018-06-05T17:14:14.291Z,0.70
2018-06-05T17:16:43.644Z,0.90
2018-06-05T17:19:13.308Z,0.70
2018-06-05T17:21:43.029Z,1.40
2018-06-05T17:24:12.872Z,0.90
2018-06-05T17:26:41.308Z,0.70
2018-06-05T17:29:09.880Z,0.87
2018-06-05T17:31:38.326Z,0.70
2018-06-05T17:34:06.949Z,0.80
2018-06-05T17:36:37.076Z,0.80
2018-06-05T17:39:08.053Z,0.90
2018-06-05T17:41:37.812Z,0.80
2018-06-05T17:44:07.745Z,0.80
2018-06-05T17:46:37.821Z,0.80
2018-06-05T17:49:06.307Z,0.73
2018-06-05T17:51:34.766Z,0.80
2018-06-05T17:54:04.848Z,0.80
2018-06-05T17:56:35.168Z,0.70
2018-06-05T17:59:03.841Z,0.80
2018-06-05T18:01:33.769Z,0.70
2018-06-05T18:04:03.772Z,0.83
2018-06-05T18:06:33.758Z,0.80
2018-06-05T18:09:02.294Z,0.70
2018-06-05T18:11:31.443Z,0.70
2018-06-05T18:13:59.933Z,0.90
2018-06-05T18:16:28.432Z,0.80
2018-06-05T18:18:57.147Z,0.80
2018-06-05T18:21:27.062Z,0.70
2018-06-05T18:23:55.660Z,0.80
2018-06-05T18:26:24.255Z,0.80
2018-06-05T18:28:52.946Z,0.90
2018-06-05T18:31:21.529Z,0.70
2018-06-05T18:33:49.968Z,0.77
2018-06-05T18:36:18.557Z,0.90
2018-06-05T18:38:47.199Z,0.73
2018-06-05T18:41:15.794Z,0.70
2018-06-05T18:43:44.284Z,0.60
2018-06-05T18:46:12.980Z,0.90
2018-06-05T18:48:41.425Z,0.70
2018-06-05T18:51:09.909Z,0.70
2018-06-05T18:53:38.415Z,0.90
2018-06-05T18:56:07.005Z,0.80
2018-06-05T18:58:35.418Z,0.80
2018-06-05T19:01:05.630Z,0.90
2018-06-05T19:03:34.073Z,0.70
2018-06-05T19:06:03.527Z,0.80
2018-06-05T19:08:32.107Z,0.90
2018-06-05T19:11:00.566Z,0.93
2018-06-05T19:13:30.297Z,0.73
2018-06-05T19:16:00.236Z,0.80
2018-06-05T19:18:28.714Z,0.93
2018-06-05T19:20:58.369Z,0.90
2018-06-05T19:23:28.285Z,1.10
2018-06-05T19:25:58.648Z,0.80
2018-06-05T19:28:27.240Z,0.93
2018-06-05T19:30:55.732Z,0.87
2018-06-05T19:33:26.000Z,0.87
2018-06-05T19:35:56.523Z,1.10
2018-06-05T19:38:25.039Z,1.10
2018-06-05T19:40:55.540Z,0.83
2018-06-05T19:43:25.861Z,0.77
2018-06-05T19:45:57.005Z,0.83
2018-06-05T19:48:25.545Z,0.80
2018-06-05T19:50:56.012Z,0.80
2018-06-05T19:53:24.554Z,1.10
2018-06-05T19:55:55.297Z,0.90
2018-06-05T19:58:25.759Z,1.13
2018-06-05T20:00:56.496Z,1.27
2018-06-05T20:03:27.072Z,1.30
2018-06-05T20:05:56.840Z,1.40
2018-06-05T20:08:26.266Z,1.20
2018-06-05T20:10:55.898Z,1.50
2018-06-05T20:13:24.444Z,1.37
2018-06-05T20:15:54.088Z,1.70
2018-06-05T20:18:22.878Z,1.73
2018-06-05T20:20:52.649Z,1.60
2018-06-05T20:23:22.357Z,1.93
2018-06-05T20:25:52.107Z,3.20
2018-06-05T20:28:22.000Z,1.73
2018-06-05T20:30:51.387Z,1.80
2018-06-05T20:33:20.900Z,1.60
2018-06-05T20:35:50.429Z,2.10
2018-06-05T20:38:20.185Z,2.17
2018-06-05T20:40:49.452Z,1.87
2018-06-05T20:43:19.541Z,2.10
2018-06-05T20:45:47.961Z,1.73
2018-06-05T20:48:16.459Z,1.57
2018-06-05T20:50:45.984Z,1.47
2018-06-05T20:53:14.516Z,1.70
2018-06-05T20:55:44.490Z,1.43
2018-06-05T20:58:14.432Z,1.40
2018-06-05T21:00:43.138Z,1.50
2018-06-05T21:03:12.648Z,1.20
2018-06-05T21:05:41.211Z,1.30
2018-06-05T21:08:11.144Z,1.53
2018-06-05T21:10:41.109Z,1.30
2018-06-05T21:13:10.544Z,1.30
2018-06-05T21:15:39.134Z,1.30
2018-06-05T21:18:07.682Z,1.40
2018-06-05T21:20:36.326Z,1.40
2018-06-05T21:23:04.793Z,1.60
2018-06-05T21:25:33.296Z,1.50
2018-06-05T21:28:03.129Z,1.37
2018-06-05T21:30:33.082Z,1.83
2018-06-05T21:33:01.616Z,1.90
2018-06-05T21:35:30.084Z,1.70
2018-06-05T21:37:59.486Z,1.60
2018-06-05T21:40:27.931Z,1.47
2018-06-05T21:42:57.709Z,1.47
2018-06-05T21:45:26.143Z,1.47
2018-06-05T21:47:55.400Z,1.30
2018-06-05T21:50:25.400Z,1.50
2018-06-05T21:52:54.931Z,1.63
2018-06-05T21:55:25.219Z,1.60
2018-06-05T21:57:55.247Z,1.40
2018-06-05T22:00:24.847Z,1.73
2018-06-05T22:02:54.873Z,1.70
2018-06-05T22:05:24.391Z,1.43
2018-06-05T22:07:54.192Z,1.40
2018-06-05T22:10:23.907Z,1.30
2018-06-05T22:12:53.319Z,1.30
2018-06-05T22:15:22.842Z,1.20
2018-06-05T22:17:52.627Z,1.40
2018-06-05T22:20:22.358Z,1.40
2018-06-05T22:22:51.760Z,1.23
2018-06-05T22:25:21.367Z,1.57
2018-06-05T22:27:50.767Z,1.20
2018-06-05T22:30:20.813Z,1.30
2018-06-05T22:32:50.718Z,1.40
2018-06-05T22:35:20.099Z,1.90
2018-06-05T22:37:50.091Z,1.70
2018-06-05T22:40:19.501Z,1.60
2018-06-05T22:42:49.519Z,1.60
2018-06-05T22:45:18.714Z,1.60
2018-06-05T22:47:48.021Z,1.50
2018-06-05T22:50:18.073Z,1.37
2018-06-05T22:52:47.444Z,1.70
2018-06-05T22:55:16.961Z,1.70
2018-06-05T22:57:46.437Z,1.70
2018-06-05T23:00:34.994Z,1.53
2018-06-05T23:03:04.842Z,1.40
2018-06-05T23:05:33.339Z,1.37
2018-06-05T23:08:02.615Z,1.40
2018-06-05T23:10:32.364Z,1.37
2018-06-05T23:13:01.503Z,1.50
2018-06-05T23:15:31.576Z,1.40
2018-06-05T23:18:01.418Z,1.40
2018-06-05T23:20:31.362Z,1.80
2018-06-05T23:23:01.061Z,1.50
2018-06-05T23:25:30.762Z,1.47
2018-06-05T23:28:00.467Z,1.60
2018-06-05T23:30:29.659Z,1.50
2018-06-05T23:32:59.299Z,1.70
2018-06-05T23:35:29.014Z,1.97
2018-06-05T23:37:58.491Z,1.97
2018-06-05T23:40:27.699Z,2.20
2018-06-05T23:42:57.613Z,2.20
2018-06-05T23:45:27.619Z,2.00
2018-06-05T23:47:57.352Z,1.40
2018-06-05T23:50:26.959Z,1.40
2018-06-05T23:52:56.993Z,1.53
2018-06-05T23:55:26.453Z,1.37
2018-06-05T23:57:56.374Z,1.37
